Time;durP1;ratioP1;P1;durP2;ratioP2;P2;SDS_P1;SDS_P2;PMS_P1;PMS_P2;Temp;Humidity;BMP_temperature;BMP_pressure;BME280_temperature;BME280_humidity;BME280_pressure;Samples;Min_cycle;Max_cycle;Signal;HPM_P1;HPM_P2
2021/06/19 04:32:53;;;;;;;17.17;8.03;;;20.70;99.90;;;;;;5089710;23;20612;-79
2021/06/19 04:35:20;;;;;;;12.90;6.67;;;20.70;99.90;;;;;;5013653;28;20433;-79
2021/06/19 04:37:46;;;;;;;10.13;6.50;;;20.70;99.90;;;;;;5013283;28;20425;-77
2021/06/19 04:45:23;;;;;;;11.23;7.20;;;20.70;99.90;;;;;;5013764;28;20803;-78
2021/06/19 04:47:50;;;;;;;15.80;6.90;;;20.80;99.90;;;;;;5013076;28;20432;-79
2021/06/19 04:50:15;;;;;;;20.57;7.20;;;20.90;99.90;;;;;;5013248;28;20452;-79
2021/06/19 04:52:43;;;;;;;13.13;8.87;;;21.00;99.90;;;;;;5012790;28;20456;-79
2021/06/19 04:55:17;;;;;;;14.90;7.17;;;21.10;99.90;;;;;;5013243;28;20175;-79
2021/06/19 04:57:43;;;;;;;14.67;7.77;;;21.20;99.90;;;;;;5012431;28;20425;-78
2021/06/19 05:00:11;;;;;;;9.70;6.47;;;21.40;99.90;;;;;;5012958;28;20475;-79
2021/06/19 05:02:37;;;;;;;14.50;7.43;;;21.50;99.90;;;;;;5011175;28;20529;-79
2021/06/19 05:05:04;;;;;;;20.90;8.27;;;21.70;99.90;;;;;;5012406;28;20478;-79
2021/06/19 05:07:29;;;;;;;13.70;7.27;;;21.80;99.90;;;;;;5013049;28;20424;-79
2021/06/19 05:09:55;;;;;;;17.00;7.73;;;22.10;99.90;;;;;;5014056;28;20505;-79
2021/06/19 05:12:21;;;;;;;14.97;7.47;;;22.20;99.90;;;;;;5014291;28;20191;-80
2021/06/19 05:14:46;;;;;;;17.93;7.10;;;22.50;99.90;;;;;;5013593;28;20550;-79
2021/06/19 05:17:12;;;;;;;10.33;7.00;;;22.80;99.90;;;;;;5014730;28;20542;-80
2021/06/19 05:19:37;;;;;;;14.53;7.87;;;23.10;99.90;;;;;;5013867;28;20637;-80
2021/06/19 05:22:03;;;;;;;10.73;7.30;;;23.10;99.90;;;;;;5013534;28;20229;-80
2021/06/19 05:24:29;;;;;;;15.83;8.07;;;23.00;99.90;;;;;;5014259;28;20695;-80
2021/06/19 05:26:54;;;;;;;17.73;8.27;;;22.80;99.90;;;;;;5014271;28;20186;-79
2021/06/19 05:29:20;;;;;;;14.47;7.50;;;23.00;99.90;;;;;;4996423;28;20182;-81
2021/06/19 05:31:46;;;;;;;13.60;8.20;;;23.50;99.90;;;;;;5013193;28;20218;-79
2021/06/19 05:34:12;;;;;;;16.93;8.27;;;24.00;99.90;;;;;;5013055;28;20543;-80
2021/06/19 05:36:37;;;;;;;14.53;7.73;;;24.50;99.90;;;;;;5014002;28;20417;-78
2021/06/19 05:39:04;;;;;;;15.97;7.00;;;25.00;99.90;;;;;;5013404;28;20189;-79
2021/06/19 05:41:30;;;;;;;16.77;7.33;;;25.30;99.90;;;;;;5015563;28;20218;-80
2021/06/19 05:43:57;;;;;;;11.20;6.70;;;25.70;99.90;;;;;;5015090;28;20827;-79
2021/06/19 05:46:23;;;;;;;15.77;7.27;;;26.00;99.90;;;;;;5024610;28;20425;-80
2021/06/19 05:48:48;;;;;;;15.93;7.00;;;26.10;99.90;;;;;;5017408;28;20422;-80
2021/06/19 05:51:14;;;;;;;9.50;6.50;;;26.30;99.90;;;;;;5016114;28;20233;-79
2021/06/19 05:53:39;;;;;;;14.30;8.00;;;26.50;99.90;;;;;;5015173;28;20178;-80
2021/06/19 05:56:05;;;;;;;19.50;7.47;;;26.60;99.90;;;;;;5014465;28;20605;-79
2021/06/19 05:58:31;;;;;;;18.13;7.10;;;26.50;99.90;;;;;;5014524;28;20186;-78
2021/06/19 06:00:56;;;;;;;14.07;7.70;;;26.70;99.90;;;;;;5010933;28;20199;-78
2021/06/19 06:03:22;;;;;;;12.67;6.50;;;26.80;99.90;;;;;;5010279;28;20214;-78
2021/06/19 06:05:47;;;;;;;18.13;7.33;;;27.10;99.90;;;;;;5011040;28;20206;-78
2021/06/19 06:08:13;;;;;;;16.27;6.23;;;27.30;99.90;;;;;;5010171;28;20644;-75
2021/06/19 06:10:40;;;;;;;10.23;6.13;;;27.30;99.90;;;;;;5010600;28;20182;-77
2021/06/19 06:13:05;;;;;;;14.53;7.03;;;27.40;99.90;;;;;;5010513;28;20167;-78
2021/06/19 06:15:31;;;;;;;10.63;6.87;;;27.70;99.90;;;;;;5011782;28;20406;-79
2021/06/19 06:17:57;;;;;;;9.70;7.70;;;28.10;99.90;;;;;;5010982;28;20179;-79
2021/06/19 06:20:22;;;;;;;14.13;6.23;;;28.40;99.90;;;;;;5011909;28;20175;-80
2021/06/19 06:22:49;;;;;;;10.70;7.27;;;28.60;99.90;;;;;;5012348;28;20285;-79
2021/06/19 06:25:15;;;;;;;19.73;7.13;;;28.90;99.90;;;;;;5011882;28;20206;-77
2021/06/19 06:27:41;;;;;;;9.90;5.93;;;28.90;99.90;;;;;;5011825;28;20414;-79
2021/06/19 06:30:07;;;;;;;10.57;6.40;;;29.00;99.90;;;;;;5011162;28;20221;-79
2021/06/19 06:32:34;;;;;;;9.40;6.60;;;29.20;99.90;;;;;;5010625;28;20225;-77
2021/06/19 06:34:59;;;;;;;15.67;6.50;;;29.30;99.90;;;;;;5010570;28;20421;-79
2021/06/19 06:37:25;;;;;;;7.40;6.70;;;29.50;99.90;;;;;;4991828;28;20945;-79
2021/06/19 06:39:51;;;;;;;12.97;6.77;;;29.70;99.90;;;;;;4995690;28;20540;-79
2021/06/19 06:42:16;;;;;;;8.47;6.00;;;30.00;99.90;;;;;;5011231;28;20260;-79
2021/06/19 06:44:42;;;;;;;14.63;6.70;;;30.00;99.90;;;;;;5012477;28;20621;-79
2021/06/19 06:47:08;;;;;;;9.20;6.10;;;29.90;99.90;;;;;;5012622;28;20220;-79
2021/06/19 06:49:34;;;;;;;10.20;6.13;;;29.90;99.90;;;;;;5011196;28;20170;-77
2021/06/19 06:51:59;;;;;;;10.27;6.60;;;30.00;99.90;;;;;;5008737;28;20194;-78
2021/06/19 06:54:25;;;;;;;12.43;6.70;;;30.10;99.90;;;;;;4991408;28;20183;-79
2021/06/19 06:56:51;;;;;;;5.70;5.23;;;29.90;99.90;;;;;;5011172;28;20198;-77
2021/06/19 06:59:16;;;;;;;7.10;5.80;;;30.00;99.90;;;;;;5010129;28;20181;-78
2021/06/19 07:01:42;;;;;;;15.23;6.20;;;30.30;99.90;;;;;;5012542;28;20205;-79
2021/06/19 07:04:07;;;;;;;11.20;5.50;;;30.60;99.90;;;;;;4994323;28;20251;-79
2021/06/19 07:06:33;;;;;;;8.30;5.67;;;30.80;99.90;;;;;;5012623;28;20175;-77
2021/06/19 07:08:59;;;;;;;14.80;5.60;;;31.00;99.90;;;;;;5013142;28;20214;-80
2021/06/19 07:11:24;;;;;;;9.53;5.20;;;30.90;99.90;;;;;;5013017;28;20202;-79
2021/06/19 07:13:50;;;;;;;8.17;5.50;;;30.80;99.90;;;;;;5011623;28;20174;-78
2021/06/19 07:16:16;;;;;;;7.50;5.53;;;30.90;99.90;;;;;;5011626;28;20640;-77
2021/06/19 07:18:43;;;;;;;8.17;5.60;;;30.80;99.90;;;;;;5011983;28;20405;-79
2021/06/19 07:21:09;;;;;;;6.27;4.90;;;30.90;99.90;;;;;;5014226;28;20708;-80
2021/06/19 07:23:34;;;;;;;15.50;6.50;;;31.30;99.90;;;;;;5013416;28;20449;-78
2021/06/19 07:26:00;;;;;;;6.57;5.63;;;31.20;99.90;;;;;;5013139;28;20182;-79
2021/06/19 07:28:26;;;;;;;6.97;6.17;;;30.80;99.90;;;;;;5013140;28;20171;-80
2021/06/19 07:30:51;;;;;;;10.37;6.27;;;30.80;99.90;;;;;;5013165;28;20216;-79
2021/06/19 07:33:17;;;;;;;12.10;6.73;;;30.20;99.90;;;;;;5013574;28;20178;-79
2021/06/19 07:35:43;;;;;;;18.90;7.67;;;30.60;99.90;;;;;;5011444;28;20174;-77
2021/06/19 07:38:08;;;;;;;7.10;5.30;;;31.00;99.90;;;;;;5012098;28;20171;-80
2021/06/19 07:40:34;;;;;;;7.23;5.57;;;31.10;99.90;;;;;;5013951;28;20182;-78
2021/06/19 07:43:00;;;;;;;13.10;6.07;;;31.30;99.90;;;;;;5005380;28;20197;-80
2021/06/19 07:45:26;;;;;;;9.67;5.60;;;31.40;99.90;;;;;;4998796;28;20190;-79
2021/06/19 07:47:52;;;;;;;9.37;4.67;;;31.70;99.90;;;;;;4981115;28;20419;-80
2021/06/19 07:50:17;;;;;;;8.80;4.10;;;32.20;99.90;;;;;;4997428;28;20191;-78
2021/06/19 07:52:44;;;;;;;7.60;5.67;;;32.70;99.90;;;;;;4996007;28;20330;-77
2021/06/19 07:55:10;;;;;;;10.93;5.43;;;32.60;99.90;;;;;;4996021;28;20235;-79
2021/06/19 07:57:35;;;;;;;9.40;5.40;;;32.60;99.90;;;;;;4996590;28;20415;-79
2021/06/19 08:00:02;;;;;;;7.20;4.87;;;32.90;99.90;;;;;;4996730;28;20416;-79
2021/06/19 08:02:27;;;;;;;9.77;4.93;;;33.00;99.90;;;;;;4996948;28;20210;-80
2021/06/19 08:04:53;;;;;;;11.20;5.60;;;32.80;99.90;;;;;;4997585;28;20470;-77
2021/06/19 08:07:18;;;;;;;8.43;5.10;;;33.00;99.90;;;;;;4997818;28;20175;-79
2021/06/19 08:09:45;;;;;;;10.40;5.60;;;33.20;99.90;;;;;;4996812;28;20222;-78
2021/06/19 08:12:10;;;;;;;9.43;6.20;;;33.30;99.90;;;;;;4996406;28;20245;-79
2021/06/19 08:14:36;;;;;;;6.87;5.17;;;32.90;99.90;;;;;;4996979;28;20430;-79
2021/06/19 08:17:14;;;;;;;10.90;5.20;;;32.90;99.90;;;;;;4995745;28;20628;-79
2021/06/19 08:19:40;;;;;;;7.23;5.90;;;33.40;99.90;;;;;;4996359;28;20694;-79
2021/06/19 08:22:06;;;;;;;11.20;4.97;;;33.50;99.90;;;;;;4995499;28;20446;-78
2021/06/19 08:24:32;;;;;;;15.70;5.97;;;33.90;99.90;;;;;;4994991;28;20214;-79
2021/06/19 08:26:58;;;;;;;5.50;5.10;;;33.90;99.90;;;;;;4996479;28;20422;-79
2021/06/19 08:29:23;;;;;;;5.77;5.27;;;33.60;99.90;;;;;;4995145;28;20181;-79
2021/06/19 08:31:50;;;;;;;6.90;4.77;;;33.70;99.90;;;;;;4996316;28;20301;-77
2021/06/19 08:34:15;;;;;;;10.03;5.80;;;34.10;99.90;;;;;;4995779;28;20184;-79
2021/06/19 08:36:41;;;;;;;11.63;5.67;;;34.10;99.90;;;;;;4995279;28;20429;-79
2021/06/19 08:39:06;;;;;;;9.50;5.83;;;33.60;99.90;;;;;;4996859;28;20175;-77
2021/06/19 08:41:33;;;;;;;9.40;5.77;;;33.70;99.90;;;;;;4996765;28;20278;-80
2021/06/19 08:44:01;;;;;;;12.40;5.60;;;33.60;99.90;;;;;;4978725;28;20195;-79
2021/06/19 08:46:26;;;;;;;9.80;6.50;;;34.00;99.90;;;;;;4996829;28;20506;-79
2021/06/19 08:48:54;;;;;;;9.93;6.17;;;33.80;99.90;;;;;;4995879;28;20949;-79
2021/06/19 08:51:20;;;;;;;7.10;6.40;;;34.10;99.90;;;;;;4994533;28;20183;-78
2021/06/19 08:53:48;;;;;;;9.03;6.03;;;33.90;99.90;;;;;;4994621;28;20418;-79
2021/06/19 08:56:14;;;;;;;9.90;6.67;;;33.70;99.90;;;;;;4993646;28;20425;-76
2021/06/19 08:58:41;;;;;;;12.93;6.60;;;33.80;99.90;;;;;;4995484;28;20500;-79
2021/06/19 09:01:06;;;;;;;10.77;6.40;;;34.20;99.90;;;;;;4994650;28;20195;-80
2021/06/19 09:03:32;;;;;;;8.10;6.10;;;34.50;99.90;;;;;;4994556;28;20450;-80
2021/06/19 09:06:21;;;;;;;10.30;6.63;;;34.80;99.90;;;;;;4995015;28;20229;-79
2021/06/19 09:09:13;;;;;;;7.27;5.60;;;35.00;99.90;;;;;;4995049;28;20175;-78
2021/06/19 09:11:47;;;;;;;16.83;6.67;;;35.10;99.90;;;;;;4994462;28;20431;-79
2021/06/19 09:14:22;;;;;;;12.57;6.20;;;35.30;99.90;;;;;;4977410;28;20448;-76
2021/06/19 09:17:02;;;;;;;12.80;6.30;;;35.00;99.90;;;;;;4995126;28;20481;-79
2021/06/19 09:19:33;;;;;;;11.30;6.63;;;35.00;99.90;;;;;;4995568;28;20419;-79
2021/06/19 09:22:09;;;;;;;10.43;5.77;;;34.90;99.90;;;;;;4994347;28;20513;-79
2021/06/19 09:24:55;;;;;;;8.10;5.87;;;35.50;99.90;;;;;;4994939;28;20492;-79
2021/06/19 09:27:44;;;;;;;12.50;6.37;;;35.60;99.90;;;;;;4977962;28;20419;-79
2021/06/19 09:30:16;;;;;;;12.23;6.50;;;35.40;99.90;;;;;;4995151;28;20434;-79
2021/06/19 09:32:48;;;;;;;10.43;7.03;;;35.60;99.90;;;;;;4994735;28;20540;-77
2021/06/19 09:35:31;;;;;;;10.53;6.23;;;35.70;99.90;;;;;;4994410;28;20422;-76
2021/06/19 09:38:01;;;;;;;8.00;5.73;;;35.90;99.90;;;;;;4994825;28;20422;-79
2021/06/19 09:40:47;;;;;;;8.47;6.10;;;35.80;99.90;;;;;;4994859;28;20481;-79
2021/06/19 09:43:20;;;;;;;13.20;7.23;;;35.70;99.90;;;;;;4993662;28;20433;-79
2021/06/19 09:46:00;;;;;;;8.87;6.27;;;35.90;99.90;;;;;;4994342;28;20791;-79
2021/06/19 09:48:33;;;;;;;8.43;6.33;;;36.70;99.90;;;;;;4995384;28;20414;-79
2021/06/19 09:51:15;;;;;;;12.87;6.17;;;37.00;99.90;;;;;;4994650;28;20565;-80
2021/06/19 09:53:42;;;;;;;9.90;6.40;;;37.50;99.90;;;;;;4994269;28;20756;-79
2021/06/19 09:56:09;;;;;;;10.63;5.77;;;37.60;99.70;;;;;;4993648;28;20413;-79
2021/06/19 09:58:37;;;;;;;8.47;5.87;;;37.50;99.70;;;;;;4994942;28;20529;-79
2021/06/19 10:01:03;;;;;;;11.97;6.70;;;37.70;98.60;;;;;;4994288;28;20525;-79
2021/06/19 10:03:28;;;;;;;9.90;6.53;;;37.70;98.50;;;;;;4992163;28;20502;-80
2021/06/19 10:05:54;;;;;;;16.17;7.07;;;37.70;98.40;;;;;;4994502;28;20210;-77
2021/06/19 10:08:20;;;;;;;10.30;6.87;;;37.10;98.60;;;;;;4993991;28;20175;-80
2021/06/19 10:10:47;;;;;;;7.53;6.23;;;37.20;98.30;;;;;;4993959;28;20413;-79
2021/06/19 10:13:13;;;;;;;11.60;6.40;;;37.30;98.40;;;;;;4993452;28;20178;-77
2021/06/19 10:15:40;;;;;;;16.23;7.80;;;37.80;97.80;;;;;;4995488;28;20415;-80
2021/06/19 10:18:06;;;;;;;9.33;5.73;;;38.00;97.60;;;;;;4993902;28;20414;-79
2021/06/19 10:20:31;;;;;;;13.80;6.13;;;37.40;97.00;;;;;;4995111;28;20509;-80
2021/06/19 10:22:57;;;;;;;9.73;6.03;;;37.40;96.90;;;;;;4997915;28;20954;-79
2021/06/19 10:25:26;;;;;;;10.33;6.17;;;37.10;96.20;;;;;;4996287;28;20207;-79
2021/06/19 10:27:53;;;;;;;15.10;7.70;;;37.10;97.60;;;;;;4994240;28;20171;-80
2021/06/19 10:30:23;;;;;;;23.57;7.93;;;36.40;98.30;;;;;;4992692;28;20411;-79
2021/06/19 10:32:51;;;;;;;8.27;7.47;;;36.00;98.30;;;;;;4999625;28;20547;-80
2021/06/19 10:35:18;;;;;;;14.63;7.10;;;36.10;98.90;;;;;;4999394;28;20434;-79
2021/06/19 10:37:45;;;;;;;13.23;7.60;;;35.70;99.50;;;;;;4975245;28;20430;-78
2021/06/19 10:40:17;;;;;;;15.27;7.93;;;35.90;99.80;;;;;;4993011;28;20930;-79
2021/06/19 10:42:43;;;;;;;12.87;7.47;;;36.20;99.90;;;;;;4993008;28;20888;-79
2021/06/19 10:45:19;;;;;;;11.13;6.37;;;36.50;99.90;;;;;;4995096;28;20469;-80
2021/06/19 10:48:10;;;;;;;12.93;6.93;;;36.30;99.10;;;;;;5013114;28;20469;-78
2021/06/19 10:50:37;;;;;;;10.43;6.73;;;36.50;99.90;;;;;;5013172;28;20406;-78
2021/06/19 10:53:05;;;;;;;14.30;6.77;;;36.60;97.60;;;;;;5011153;28;20413;-79
2021/06/19 10:55:32;;;;;;;19.57;8.40;;;36.00;98.30;;;;;;5012364;28;20424;-79
2021/06/19 10:58:15;;;;;;;16.73;7.13;;;36.10;98.60;;;;;;5011538;28;20940;-79
2021/06/19 11:00:51;;;;;;;11.50;7.23;;;35.60;98.60;;;;;;5011924;28;20449;-79
2021/06/19 11:03:45;;;;;;;11.40;6.97;;;35.30;99.00;;;;;;4994564;28;20483;-79
2021/06/19 11:06:24;;;;;;;12.30;6.80;;;35.20;99.70;;;;;;5013126;28;20941;-79
2021/06/19 11:09:13;;;;;;;9.30;5.60;;;34.70;99.70;;;;;;5012275;28;20556;-79
2021/06/19 11:11:56;;;;;;;13.63;6.70;;;34.30;98.90;;;;;;4994366;28;20437;-79
2021/06/19 11:14:46;;;;;;;21.43;7.20;;;34.30;99.90;;;;;;5011983;28;20429;-79
2021/06/19 11:17:15;;;;;;;11.07;6.70;;;34.30;99.90;;;;;;5002905;28;20433;-79
2021/06/19 11:19:46;;;;;;;11.50;6.77;;;34.60;99.90;;;;;;5015794;28;20424;-79
2021/06/19 11:22:24;;;;;;;16.83;6.77;;;34.60;99.50;;;;;;5015381;28;20440;-79
2021/06/19 11:25:12;;;;;;;15.80;5.33;;;34.90;99.50;;;;;;5014969;28;20457;-79
2021/06/19 11:27:53;;;;;;;13.27;6.10;;;35.30;97.90;;;;;;5015015;28;20432;-78
2021/06/19 11:30:33;;;;;;;15.90;5.70;;;35.40;96.70;;;;;;5015612;28;21002;-79
2021/06/19 11:33:19;;;;;;;10.23;5.83;;;35.60;96.00;;;;;;4995994;28;20449;-79
2021/06/19 11:35:46;;;;;;;10.70;5.33;;;35.60;95.40;;;;;;5016945;28;20496;-79
2021/06/19 11:38:13;;;;;;;8.00;5.50;;;35.80;94.80;;;;;;5016973;28;20414;-80
2021/06/19 11:40:40;;;;;;;14.33;5.87;;;35.70;94.60;;;;;;5016653;28;20416;-78
2021/06/19 11:43:07;;;;;;;12.73;5.83;;;35.40;94.50;;;;;;5015705;28;20513;-79
2021/06/19 11:45:34;;;;;;;15.27;6.20;;;35.20;95.00;;;;;;5015340;28;20472;-76
2021/06/19 11:48:09;;;;;;;11.63;5.97;;;35.00;96.60;;;;;;5013776;28;20492;-78
2021/06/19 11:50:38;;;;;;;17.37;6.33;;;34.90;96.40;;;;;;5014471;28;20417;-77
2021/06/19 11:53:26;;;;;;;13.37;6.57;;;34.90;97.30;;;;;;5017688;28;20435;-77
2021/06/19 11:56:04;;;;;;;9.87;6.57;;;34.70;98.10;;;;;;5007782;28;20405;-78
2021/06/19 11:58:56;;;;;;;9.70;6.47;;;34.70;97.70;;;;;;5013647;28;20423;-78
2021/06/19 12:01:30;;;;;;;15.93;6.87;;;34.50;98.50;;;;;;5013462;28;21112;-77
2021/06/19 12:04:00;;;;;;;11.10;6.10;;;34.70;98.10;;;;;;5012170;28;20550;-77
2021/06/19 12:06:37;;;;;;;12.03;7.77;;;34.80;97.20;;;;;;5012250;28;20425;-76
2021/06/19 12:09:08;;;;;;;11.03;6.80;;;35.00;97.40;;;;;;5011770;28;20421;-78
2021/06/19 12:11:39;;;;;;;8.50;6.13;;;34.60;98.20;;;;;;5011746;28;20807;-77
2021/06/19 12:14:28;;;;;;;16.13;6.60;;;34.20;99.20;;;;;;4995234;28;20810;-77
2021/06/19 12:16:56;;;;;;;16.17;7.20;;;33.90;98.20;;;;;;5011274;28;20465;-77
2021/06/19 12:19:25;;;;;;;13.37;6.50;;;33.90;99.90;;;;;;5010679;28;20432;-77
2021/06/19 12:21:55;;;;;;;11.67;6.63;;;33.80;99.80;;;;;;5013251;28;20523;-77
2021/06/19 12:24:33;;;;;;;12.30;5.30;;;33.90;98.30;;;;;;5012157;28;20461;-77
2021/06/19 12:27:12;;;;;;;12.17;5.30;;;33.70;97.50;;;;;;5013780;28;20906;-78
2021/06/19 12:29:45;;;;;;;12.17;7.23;;;33.70;98.70;;;;;;5012492;28;20417;-77
2021/06/19 12:32:27;;;;;;;11.70;6.80;;;33.70;99.20;;;;;;5012855;28;20503;-77
2021/06/19 12:34:58;;;;;;;10.07;8.10;;;33.90;98.60;;;;;;5012600;28;20410;-75
2021/06/19 12:37:28;;;;;;;29.40;7.10;;;33.90;98.30;;;;;;5013421;28;20769;-77
2021/06/19 12:39:54;;;;;;;10.53;6.40;;;34.00;99.90;;;;;;5012255;28;20416;-76
2021/06/19 12:42:43;;;;;;;10.27;5.80;;;34.30;98.20;;;;;;4995377;28;20488;-77
2021/06/19 12:45:10;;;;;;;10.93;5.90;;;34.50;98.00;;;;;;5012949;28;20457;-77
2021/06/19 12:47:40;;;;;;;13.97;7.87;;;34.40;97.60;;;;;;5012345;28;20413;-78
2021/06/19 12:50:07;;;;;;;7.23;5.60;;;34.20;98.00;;;;;;5012749;28;20488;-77
2021/06/19 12:52:32;;;;;;;12.00;6.10;;;34.10;98.30;;;;;;5012308;28;20433;-76
2021/06/19 12:55:12;;;;;;;9.83;5.87;;;33.90;97.50;;;;;;5011804;28;20433;-78
2021/06/19 12:57:38;;;;;;;7.13;5.33;;;33.80;97.50;;;;;;5012946;28;20265;-78
2021/06/19 13:00:06;;;;;;;15.23;6.63;;;33.80;97.30;;;;;;4995497;28;20898;-77
2021/06/19 13:02:50;;;;;;;13.10;6.43;;;33.80;97.20;;;;;;4994785;28;20198;-76
2021/06/19 13:05:17;;;;;;;14.33;5.90;;;33.70;96.90;;;;;;5012533;28;20599;-77
2021/06/19 13:07:43;;;;;;;13.60;6.13;;;33.60;96.00;;;;;;4994546;28;20921;-77
2021/06/19 13:10:09;;;;;;;13.70;5.30;;;33.60;96.70;;;;;;5011843;28;20560;-78
2021/06/19 13:12:47;;;;;;;14.23;6.17;;;33.60;96.70;;;;;;5012731;28;20191;-76
2021/06/19 13:15:13;;;;;;;9.47;4.67;;;33.60;95.40;;;;;;5012491;28;20417;-78
2021/06/19 13:17:43;;;;;;;24.30;5.33;;;33.60;94.00;;;;;;5012873;28;20421;-78
2021/06/19 13:20:35;;;;;;;13.43;5.03;;;33.60;93.90;;;;;;5004608;28;20813;-78
2021/06/19 13:23:01;;;;;;;9.53;5.43;;;33.60;94.10;;;;;;5003258;28;20505;-77
2021/06/19 13:25:50;;;;;;;22.90;6.10;;;33.60;93.50;;;;;;5012105;28;20453;-78
2021/06/19 13:28:31;;;;;;;19.20;5.90;;;33.40;93.30;;;;;;5010679;28;20915;-76
2021/06/19 13:31:24;;;;;;;9.10;4.87;;;33.30;93.40;;;;;;5011606;28;20449;-77
2021/06/19 13:34:02;;;;;;;12.20;5.70;;;33.20;93.40;;;;;;5010788;28;21032;-78
2021/06/19 13:36:34;;;;;;;17.47;4.97;;;33.30;93.20;;;;;;5011930;28;20417;-78
2021/06/19 13:39:08;;;;;;;8.17;4.70;;;33.10;93.20;;;;;;5011507;28;20462;-77
2021/06/19 13:41:48;;;;;;;10.00;4.70;;;33.10;93.70;;;;;;5011050;28;20524;-75
2021/06/19 13:44:16;;;;;;;11.13;5.40;;;33.20;93.20;;;;;;5011160;28;20503;-76
2021/06/19 13:46:43;;;;;;;16.80;6.03;;;33.10;92.90;;;;;;5011961;28;20410;-77
2021/06/19 13:49:09;;;;;;;14.10;4.60;;;33.20;93.70;;;;;;5009979;28;20410;-76
2021/06/19 13:51:35;;;;;;;13.97;6.07;;;33.30;94.00;;;;;;5011097;28;20809;-77
2021/06/19 13:54:01;;;;;;;14.90;6.17;;;33.40;93.40;;;;;;5009211;28;20190;-78
2021/06/19 13:56:26;;;;;;;10.33;4.67;;;33.30;93.10;;;;;;5012485;28;20925;-77
2021/06/19 13:58:52;;;;;;;12.17;6.13;;;33.40;93.60;;;;;;5012611;28;20567;-77
2021/06/19 14:01:18;;;;;;;13.60;5.30;;;33.30;93.10;;;;;;5011978;28;20675;-77
2021/06/19 14:03:45;;;;;;;9.80;5.20;;;33.20;93.60;;;;;;4994145;28;20544;-77
2021/06/19 14:06:12;;;;;;;17.13;5.17;;;33.10;93.30;;;;;;5012796;28;20316;-77
2021/06/19 14:08:43;;;;;;;13.70;5.27;;;33.10;93.50;;;;;;5017271;28;20442;-77
2021/06/19 14:11:09;;;;;;;11.27;5.63;;;33.10;93.40;;;;;;5014162;28;20433;-77
2021/06/19 14:13:35;;;;;;;7.70;6.40;;;33.10;93.00;;;;;;5012745;28;20413;-77
2021/06/19 14:16:00;;;;;;;12.77;5.23;;;33.10;93.70;;;;;;4991877;28;20440;-77
2021/06/19 14:18:26;;;;;;;12.50;5.57;;;33.10;93.50;;;;;;5011111;28;20663;-78
2021/06/19 14:20:52;;;;;;;15.47;5.60;;;33.10;93.70;;;;;;5010911;28;20210;-78
2021/06/19 14:23:17;;;;;;;14.37;6.17;;;33.20;94.00;;;;;;5010295;28;20189;-77
2021/06/19 14:25:43;;;;;;;15.70;5.60;;;33.10;93.80;;;;;;5010699;28;20175;-78
2021/06/19 14:28:09;;;;;;;20.20;7.07;;;33.10;95.00;;;;;;5010919;28;20167;-78
2021/06/19 14:30:34;;;;;;;8.63;5.87;;;32.90;95.00;;;;;;5010772;28;20414;-78
2021/06/19 14:33:01;;;;;;;15.57;6.97;;;33.00;95.30;;;;;;5009286;28;20485;-78
2021/06/19 14:35:26;;;;;;;11.50;6.20;;;33.00;94.80;;;;;;5009404;28;20722;-78
2021/06/19 14:37:52;;;;;;;20.57;5.40;;;32.90;95.90;;;;;;5010698;28;20903;-78
2021/06/19 14:40:18;;;;;;;17.17;6.73;;;33.00;96.00;;;;;;5010531;28;20178;-78
2021/06/19 14:42:43;;;;;;;16.47;5.93;;;33.10;96.40;;;;;;5010653;28;20245;-77
2021/06/19 14:45:09;;;;;;;11.50;5.97;;;33.20;96.00;;;;;;5008865;28;20240;-78
2021/06/19 14:47:36;;;;;;;20.90;7.40;;;33.00;96.20;;;;;;5010048;28;20836;-76
2021/06/19 14:50:02;;;;;;;15.83;6.50;;;32.90;96.80;;;;;;5011286;28;20604;-75
2021/06/19 14:52:28;;;;;;;12.93;6.93;;;32.90;96.30;;;;;;5010213;28;20467;-76
2021/06/19 14:54:54;;;;;;;19.43;8.30;;;32.90;96.70;;;;;;5009628;28;20834;-77
2021/06/19 14:57:19;;;;;;;12.23;5.93;;;32.90;97.40;;;;;;5010313;28;20175;-75
2021/06/19 14:59:45;;;;;;;12.77;6.80;;;32.80;97.60;;;;;;5010639;28;20174;-71
2021/06/19 15:02:10;;;;;;;13.50;6.60;;;32.60;98.20;;;;;;5009907;28;20294;-76
2021/06/19 15:04:36;;;;;;;14.37;7.90;;;32.60;98.50;;;;;;5009327;28;20660;-75
2021/06/19 15:07:01;;;;;;;17.50;6.37;;;32.60;98.40;;;;;;5010466;28;20547;-64
2021/06/19 15:09:27;;;;;;;11.30;6.30;;;32.50;98.20;;;;;;5010142;28;20653;-64
2021/06/19 15:11:52;;;;;;;22.97;8.43;;;32.50;98.80;;;;;;5006557;28;20694;-65
2021/06/19 15:14:18;;;;;;;14.10;6.80;;;32.50;98.60;;;;;;5009600;28;20178;-65
2021/06/19 15:16:43;;;;;;;14.20;6.70;;;32.50;98.60;;;;;;5010520;28;20194;-64
2021/06/19 15:19:09;;;;;;;15.03;6.63;;;32.60;97.80;;;;;;5011568;28;20182;-65
2021/06/19 15:21:34;;;;;;;13.27;5.80;;;32.70;98.40;;;;;;4992913;28;20199;-64
2021/06/19 15:24:00;;;;;;;15.27;6.80;;;32.80;97.60;;;;;;5011007;28;20555;-64
2021/06/19 15:26:26;;;;;;;9.10;6.00;;;32.80;97.60;;;;;;5011559;28;20174;-64
2021/06/19 15:28:51;;;;;;;16.70;7.03;;;32.70;98.10;;;;;;5009102;28;20221;-77
2021/06/19 15:31:17;;;;;;;11.50;5.77;;;32.80;98.00;;;;;;5009200;28;20641;-77
2021/06/19 15:33:42;;;;;;;14.13;7.57;;;32.70;97.50;;;;;;5011334;28;20182;-77
2021/06/19 15:36:08;;;;;;;14.53;6.17;;;32.70;97.50;;;;;;5011076;28;20229;-77
2021/06/19 15:38:38;;;;;;;12.40;7.10;;;32.60;97.70;;;;;;4996705;28;20955;-77
2021/06/19 15:41:04;;;;;;;14.80;5.83;;;32.50;97.70;;;;;;5010567;28;20934;-77
2021/06/19 15:43:29;;;;;;;16.93;6.80;;;32.50;97.50;;;;;;5010851;28;20421;-78
2021/06/19 15:45:55;;;;;;;15.10;7.43;;;32.50;97.50;;;;;;5010711;28;20857;-78
2021/06/19 15:48:23;;;;;;;12.23;7.23;;;32.50;97.40;;;;;;5011281;28;20187;-78
2021/06/19 15:50:49;;;;;;;13.57;7.13;;;32.50;97.90;;;;;;5011290;28;20177;-75
2021/06/19 15:53:15;;;;;;;11.07;6.57;;;32.40;97.80;;;;;;5008298;28;20938;-77
2021/06/19 15:55:41;;;;;;;15.13;6.80;;;32.30;98.00;;;;;;5011504;28;20187;-64
2021/06/19 15:58:06;;;;;;;19.93;7.87;;;32.30;97.90;;;;;;5011053;28;20418;-64
2021/06/19 16:00:32;;;;;;;17.50;6.63;;;32.20;98.10;;;;;;5010227;28;20258;-72
2021/06/19 16:02:58;;;;;;;14.13;6.93;;;32.10;98.70;;;;;;4993903;28;20279;-66
2021/06/19 16:05:23;;;;;;;15.10;6.53;;;32.10;98.50;;;;;;5014501;28;20542;-65
2021/06/19 16:07:50;;;;;;;13.70;6.50;;;32.10;98.90;;;;;;5014772;28;20226;-66
2021/06/19 16:10:15;;;;;;;11.47;7.00;;;32.10;98.70;;;;;;5029040;28;20178;-67
2021/06/19 16:12:41;;;;;;;16.20;6.90;;;32.20;99.10;;;;;;5014351;28;20848;-63
2021/06/19 16:15:07;;;;;;;13.27;7.27;;;32.10;98.40;;;;;;5014666;28;20182;-67
2021/06/19 16:17:32;;;;;;;9.50;7.10;;;32.10;98.50;;;;;;5014578;28;20685;-67
2021/06/19 16:19:58;;;;;;;11.90;7.60;;;32.00;98.80;;;;;;5014683;28;20445;-66
2021/06/19 16:22:24;;;;;;;20.03;6.90;;;32.00;98.80;;;;;;5014231;28;20210;-66
2021/06/19 16:24:51;;;;;;;9.37;7.20;;;32.10;98.70;;;;;;5014345;28;20253;-66
2021/06/19 16:27:17;;;;;;;14.80;7.90;;;32.10;98.70;;;;;;5014486;28;20179;-67
2021/06/19 16:29:42;;;;;;;11.57;6.77;;;32.10;98.80;;;;;;5014421;28;20534;-67
2021/06/19 16:32:08;;;;;;;8.77;7.10;;;32.20;99.10;;;;;;4996513;28;20540;-67
2021/06/19 16:34:34;;;;;;;20.20;8.27;;;32.20;98.60;;;;;;5014056;28;20257;-67
2021/06/19 16:37:00;;;;;;;10.70;7.20;;;32.10;98.70;;;;;;5014467;28;20441;-68
2021/06/19 16:39:26;;;;;;;12.53;7.57;;;32.10;98.60;;;;;;5014822;28;20178;-67
2021/06/19 16:41:51;;;;;;;21.13;7.00;;;32.00;98.60;;;;;;5014550;28;20487;-68
2021/06/19 16:44:17;;;;;;;15.30;7.70;;;31.90;98.60;;;;;;5014293;28;20252;-67
2021/06/19 16:46:42;;;;;;;9.60;6.33;;;31.80;98.60;;;;;;5014743;28;20214;-66
2021/06/19 16:49:09;;;;;;;10.67;8.93;;;31.80;98.60;;;;;;5014055;28;20645;-67
2021/06/19 16:51:34;;;;;;;15.80;7.90;;;31.80;98.40;;;;;;5013921;28;20281;-66
2021/06/19 16:54:00;;;;;;;14.83;7.63;;;31.70;98.50;;;;;;5013504;28;20509;-66
2021/06/19 16:56:25;;;;;;;12.87;8.10;;;31.70;98.90;;;;;;5013706;28;20549;-65
2021/06/19 16:58:51;;;;;;;18.67;8.63;;;31.70;99.10;;;;;;5013763;28;20171;-65
2021/06/19 17:01:17;;;;;;;11.20;7.23;;;31.70;99.00;;;;;;5013589;28;20217;-66
2021/06/19 17:03:43;;;;;;;14.00;7.00;;;31.60;98.90;;;;;;5013358;28;20202;-66
2021/06/19 17:06:09;;;;;;;16.97;7.70;;;31.50;99.00;;;;;;5013647;28;20301;-65
2021/06/19 17:08:35;;;;;;;19.07;7.93;;;31.40;99.20;;;;;;5013420;28;20962;-65
2021/06/19 17:11:00;;;;;;;15.50;8.30;;;31.40;98.80;;;;;;5013327;28;20191;-65
2021/06/19 17:13:29;;;;;;;8.63;7.30;;;31.40;99.10;;;;;;5013151;28;20929;-65
2021/06/19 17:15:55;;;;;;;16.13;8.00;;;31.40;99.60;;;;;;5013347;28;20254;-65
2021/06/19 17:18:21;;;;;;;19.93;8.80;;;31.40;99.70;;;;;;5013221;28;20496;-65
2021/06/19 17:20:46;;;;;;;10.70;6.70;;;31.40;99.90;;;;;;5013344;28;20170;-65
2021/06/19 17:23:12;;;;;;;11.10;6.57;;;31.40;99.90;;;;;;5013018;28;20199;-65